createdAt,value
2022-08-31T00:00:20.557Z,10.38
2022-08-31T00:03:05.997Z,11.20
2022-08-31T00:05:32.919Z,10.30
2022-08-31T00:07:59.821Z,10.70
2022-08-31T00:10:31.803Z,11.68
2022-08-31T00:13:05.010Z,10.20
2022-08-31T00:15:35.761Z,9.77
2022-08-31T00:18:03.268Z,7.55
2022-08-31T00:20:33.989Z,8.70
2022-08-31T00:23:07.210Z,18.88
2022-08-31T00:25:35.695Z,14.30
2022-08-31T00:28:03.811Z,15.98
2022-08-31T00:30:32.176Z,8.90
2022-08-31T00:32:59.591Z,12.25
2022-08-31T00:35:31.814Z,8.70
2022-08-31T00:37:59.607Z,11.13
2022-08-31T00:40:26.950Z,10.73
2022-08-31T00:42:54.397Z,8.40
2022-08-31T00:45:22.122Z,11.50
2022-08-31T00:47:49.170Z,8.57
2022-08-31T00:50:18.129Z,9.50
2022-08-31T00:52:51.309Z,12.27
2022-08-31T00:55:22.593Z,13.77
2022-08-31T00:57:52.988Z,14.02
2022-08-31T01:00:23.070Z,12.10
2022-08-31T01:02:50.756Z,10.73
2022-08-31T01:05:18.265Z,8.68
2022-08-31T01:07:47.880Z,9.27
2022-08-31T01:10:18.970Z,12.20
2022-08-31T01:12:47.628Z,12.88
2022-08-31T01:15:18.153Z,9.27
2022-08-31T01:17:48.336Z,10.35
2022-08-31T01:20:49.168Z,14.68
2022-08-31T01:23:25.634Z,10.10
2022-08-31T01:28:21.006Z,11.15
2022-08-31T01:31:14.395Z,9.77
2022-08-31T01:33:41.514Z,9.27
2022-08-31T01:36:12.086Z,7.47
2022-08-31T01:38:42.915Z,12.40
2022-08-31T01:41:09.988Z,10.85
2022-08-31T01:43:40.104Z,15.05
2022-08-31T01:46:10.573Z,11.80
2022-08-31T01:48:41.084Z,10.77
2022-08-31T01:51:12.401Z,13.82
2022-08-31T01:53:45.463Z,8.30
2022-08-31T01:56:15.029Z,9.63
2022-08-31T01:58:42.501Z,14.52
2022-08-31T02:01:42.566Z,10.45
2022-08-31T02:04:11.582Z,11.15
2022-08-31T02:06:42.281Z,13.23
2022-08-31T02:09:09.722Z,12.23
2022-08-31T02:11:37.678Z,6.90
2022-08-31T02:14:05.367Z,8.57
2022-08-31T02:16:32.584Z,15.65
2022-08-31T02:19:00.268Z,11.13
2022-08-31T02:21:27.340Z,13.48
2022-08-31T02:23:54.520Z,9.90
2022-08-31T02:26:25.844Z,9.95
2022-08-31T02:28:53.087Z,9.50
2022-08-31T02:31:21.130Z,12.93
2022-08-31T02:33:54.982Z,11.30
2022-08-31T02:36:23.494Z,10.50
2022-08-31T02:38:51.678Z,7.80
2022-08-31T02:41:19.864Z,10.55
2022-08-31T02:43:48.469Z,9.18
2022-08-31T02:46:16.070Z,11.90
2022-08-31T02:48:50.471Z,9.82
2022-08-31T02:51:20.543Z,10.20
2022-08-31T02:53:47.913Z,13.25
2022-08-31T02:56:15.506Z,9.23
2022-08-31T02:58:42.786Z,6.65
2022-08-31T03:01:09.884Z,14.23
2022-08-31T03:03:37.846Z,10.70
2022-08-31T03:06:06.305Z,11.13
2022-08-31T03:08:33.314Z,7.97
2022-08-31T03:11:01.181Z,7.47
2022-08-31T03:13:29.890Z,16.48
2022-08-31T03:15:57.369Z,10.70
2022-08-31T03:18:24.792Z,8.20
2022-08-31T03:20:51.745Z,9.63
2022-08-31T03:23:18.794Z,10.88
2022-08-31T03:25:47.854Z,10.38
2022-08-31T03:28:15.112Z,9.65
2022-08-31T03:30:49.794Z,9.35
2022-08-31T03:33:17.026Z,7.97
2022-08-31T03:35:44.813Z,9.85
2022-08-31T03:38:13.146Z,13.85
2022-08-31T03:40:43.977Z,7.53
2022-08-31T03:43:12.295Z,11.95
2022-08-31T03:45:42.338Z,8.82
2022-08-31T03:48:12.860Z,11.73
2022-08-31T03:50:43.803Z,12.18
2022-08-31T03:53:21.903Z,8.70
2022-08-31T03:55:51.619Z,4.78
2022-08-31T03:58:18.512Z,4.93
2022-08-31T04:00:45.828Z,6.80
2022-08-31T04:03:31.190Z,3.73
2022-08-31T04:06:23.605Z,5.45
2022-08-31T04:09:09.374Z,6.53
2022-08-31T04:11:56.528Z,8.77
2022-08-31T04:14:42.235Z,5.03
2022-08-31T04:17:28.440Z,6.65
2022-08-31T04:20:15.370Z,9.70
2022-08-31T04:22:45.690Z,6.57
2022-08-31T04:25:31.103Z,7.05
2022-08-31T04:27:58.492Z,4.95
2022-08-31T04:30:26.623Z,4.45
2022-08-31T04:32:53.627Z,8.05
2022-08-31T04:35:20.886Z,7.38
2022-08-31T04:37:48.084Z,6.68
2022-08-31T04:40:19.868Z,11.52
2022-08-31T04:42:48.114Z,5.95
2022-08-31T04:45:18.976Z,11.10
2022-08-31T04:47:45.872Z,7.15
2022-08-31T04:50:13.996Z,8.75
2022-08-31T04:53:03.615Z,9.00
2022-08-31T04:55:31.974Z,9.98
2022-08-31T04:57:59.073Z,7.38
2022-08-31T05:00:26.187Z,5.93
2022-08-31T05:03:13.379Z,9.50
2022-08-31T05:05:42.029Z,11.88
2022-08-31T05:08:09.519Z,8.38
2022-08-31T05:10:36.417Z,10.05
2022-08-31T05:13:04.094Z,11.75
2022-08-31T05:15:33.065Z,11.35
2022-08-31T05:18:00.916Z,7.72
2022-08-31T05:20:30.353Z,8.25
2022-08-31T05:22:57.231Z,5.47
2022-08-31T05:25:24.301Z,8.05
2022-08-31T05:27:53.406Z,6.97
2022-08-31T05:30:22.118Z,7.10
2022-08-31T05:33:04.940Z,9.30
2022-08-31T05:35:34.090Z,9.27
2022-08-31T05:38:01.162Z,8.75
2022-08-31T05:40:28.224Z,7.65
2022-08-31T05:42:59.414Z,7.82
2022-08-31T05:45:26.871Z,6.68
2022-08-31T05:47:54.611Z,8.18
2022-08-31T05:50:21.983Z,6.45
2022-08-31T05:52:49.890Z,9.38
2022-08-31T05:55:16.903Z,8.23
2022-08-31T05:57:43.788Z,5.88
2022-08-31T06:00:11.367Z,5.72
2022-08-31T06:02:44.149Z,6.47
2022-08-31T06:05:13.363Z,6.28
2022-08-31T06:07:41.782Z,7.50
2022-08-31T06:10:12.409Z,7.35
2022-08-31T06:12:42.499Z,7.75
2022-08-31T06:15:12.010Z,7.93
2022-08-31T06:17:40.106Z,7.03
2022-08-31T06:20:08.163Z,4.47
2022-08-31T06:22:36.554Z,7.57
2022-08-31T06:25:07.648Z,4.38
2022-08-31T06:27:38.768Z,4.75
2022-08-31T06:30:07.948Z,6.25
2022-08-31T06:32:34.900Z,5.05
2022-08-31T06:35:04.142Z,6.95
2022-08-31T06:37:57.350Z,6.40
2022-08-31T06:40:47.562Z,8.52
2022-08-31T06:43:33.051Z,10.07
2022-08-31T06:46:05.684Z,5.90
2022-08-31T06:48:33.408Z,8.55
2022-08-31T06:51:00.246Z,7.03
2022-08-31T06:53:27.960Z,9.15
2022-08-31T06:56:22.551Z,11.30
2022-08-31T06:59:08.298Z,7.38
2022-08-31T07:01:55.726Z,3.80
2022-08-31T07:04:36.797Z,8.65
2022-08-31T07:07:06.148Z,4.63
2022-08-31T07:09:33.859Z,3.65
2022-08-31T07:12:00.777Z,5.65
2022-08-31T07:14:28.313Z,6.57
2022-08-31T07:16:58.820Z,5.05
2022-08-31T07:19:27.066Z,9.85
2022-08-31T07:21:58.419Z,7.28
2022-08-31T07:24:30.309Z,10.20
2022-08-31T07:27:02.302Z,4.43
2022-08-31T07:29:40.605Z,8.63
2022-08-31T07:32:14.077Z,5.05
2022-08-31T07:34:43.836Z,3.22
2022-08-31T07:37:42.973Z,6.90
2022-08-31T07:40:29.552Z,6.30
2022-08-31T07:42:56.776Z,7.10
2022-08-31T07:45:29.398Z,5.43
2022-08-31T07:47:59.950Z,4.00
2022-08-31T07:50:38.174Z,7.90
2022-08-31T07:53:24.855Z,10.02
2022-08-31T07:56:15.131Z,7.50
2022-08-31T07:58:43.310Z,3.85
2022-08-31T08:01:11.602Z,6.22
2022-08-31T08:03:41.007Z,6.03
2022-08-31T08:06:46.126Z,7.13
2022-08-31T08:09:30.183Z,5.93
2022-08-31T08:12:07.452Z,3.90
2022-08-31T08:14:43.533Z,8.70
2022-08-31T08:17:31.051Z,5.22
2022-08-31T08:20:08.444Z,6.07
2022-08-31T08:22:53.990Z,3.75
2022-08-31T08:25:30.401Z,5.53
2022-08-31T08:28:40.902Z,6.03
2022-08-31T08:31:18.010Z,10.98
2022-08-31T08:33:45.760Z,4.88
2022-08-31T08:36:17.018Z,7.60
2022-08-31T08:38:47.315Z,4.55
2022-08-31T08:41:19.317Z,5.20
2022-08-31T08:43:58.917Z,9.45
2022-08-31T08:46:57.358Z,13.18
2022-08-31T08:49:33.354Z,5.30
2022-08-31T08:52:43.796Z,7.90
2022-08-31T08:55:17.204Z,10.10
2022-08-31T09:00:23.084Z,6.57
2022-08-31T09:03:21.238Z,10.38
2022-08-31T09:06:11.071Z,5.35
2022-08-31T09:08:59.638Z,8.65
2022-08-31T09:11:37.243Z,6.30
2022-08-31T09:14:23.832Z,6.05
2022-08-31T09:17:09.732Z,7.68
2022-08-31T09:19:57.066Z,13.48
2022-08-31T09:22:24.032Z,10.77
2022-08-31T09:24:56.278Z,10.25
2022-08-31T09:27:57.351Z,14.93
2022-08-31T09:33:07.513Z,8.68
2022-08-31T09:35:42.691Z,12.02
2022-08-31T09:38:26.052Z,9.30
2022-08-31T09:40:53.240Z,12.20
2022-08-31T09:43:25.314Z,20.13
2022-08-31T09:46:02.350Z,12.43
2022-08-31T09:48:56.284Z,6.40
2022-08-31T09:51:30.313Z,10.15
2022-08-31T09:54:23.099Z,8.70
2022-08-31T09:56:57.865Z,4.70
2022-08-31T09:59:40.083Z,17.30
2022-08-31T10:02:12.216Z,3.70
2022-08-31T10:04:58.273Z,9.50
2022-08-31T10:07:32.098Z,11.25
2022-08-31T10:10:28.363Z,6.68
2022-08-31T10:13:18.234Z,4.75
2022-08-31T10:15:56.027Z,4.15
2022-08-31T10:18:45.025Z,8.05
2022-08-31T10:21:25.872Z,6.03
2022-08-31T10:24:10.310Z,4.00
2022-08-31T10:26:46.399Z,5.35
2022-08-31T10:29:33.338Z,8.50
2022-08-31T10:32:05.360Z,6.00
2022-08-31T10:34:54.448Z,6.82
2022-08-31T10:37:36.705Z,10.95
2022-08-31T10:40:23.532Z,5.93
2022-08-31T10:43:09.254Z,9.02
2022-08-31T10:45:47.356Z,5.00
2022-08-31T10:48:15.531Z,4.28
2022-08-31T10:50:57.581Z,4.20
2022-08-31T10:53:42.976Z,6.90
2022-08-31T10:56:39.725Z,7.03
2022-08-31T10:59:19.250Z,10.13
2022-08-31T11:01:52.487Z,12.38
2022-08-31T11:04:51.982Z,9.95
2022-08-31T11:07:50.953Z,12.02
2022-08-31T11:10:21.090Z,16.88
2022-08-31T11:12:57.591Z,11.25
2022-08-31T11:15:58.072Z,9.68
2022-08-31T11:18:54.610Z,9.43
2022-08-31T11:21:57.296Z,9.18
2022-08-31T11:24:52.223Z,16.67
2022-08-31T11:27:28.050Z,14.45
2022-08-31T11:30:08.061Z,12.18
2022-08-31T11:32:50.904Z,10.98
2022-08-31T11:36:10.102Z,9.43
2022-08-31T11:38:50.115Z,7.13
2022-08-31T11:41:35.849Z,11.43
2022-08-31T11:44:04.931Z,10.38
2022-08-31T11:46:40.081Z,6.90
2022-08-31T11:49:11.680Z,12.67
2022-08-31T11:51:41.722Z,11.23
2022-08-31T11:54:11.772Z,12.70
2022-08-31T11:56:47.443Z,9.85
2022-08-31T11:59:35.133Z,9.13
2022-08-31T12:02:26.095Z,6.28
2022-08-31T12:04:53.296Z,12.38
2022-08-31T12:07:47.488Z,13.38
2022-08-31T12:10:34.193Z,18.52
2022-08-31T12:13:25.265Z,12.77
2022-08-31T12:16:01.186Z,15.57
2022-08-31T12:18:46.733Z,11.57
2022-08-31T12:21:59.730Z,16.35
2022-08-31T12:25:24.388Z,15.18
2022-08-31T12:28:48.918Z,14.70
2022-08-31T12:31:19.273Z,17.05
2022-08-31T12:34:12.480Z,12.95
2022-08-31T12:36:39.627Z,15.77
2022-08-31T12:39:19.395Z,22.90
2022-08-31T12:41:52.754Z,12.43
2022-08-31T12:44:22.792Z,15.80
2022-08-31T12:47:05.897Z,12.20
2022-08-31T12:49:51.154Z,20.40
2022-08-31T12:52:33.609Z,12.63
2022-08-31T12:55:23.502Z,11.35
2022-08-31T12:58:02.173Z,17.90
2022-08-31T13:00:34.680Z,19.05
2022-08-31T13:03:16.464Z,17.05
2022-08-31T13:05:59.612Z,15.48
2022-08-31T13:08:28.797Z,11.45
2022-08-31T13:10:55.645Z,22.50
2022-08-31T13:13:28.453Z,15.93
2022-08-31T13:16:04.558Z,11.68
2022-08-31T13:18:31.622Z,13.75
2022-08-31T13:21:05.513Z,21.27
2022-08-31T13:23:41.109Z,15.77
2022-08-31T13:26:19.992Z,12.23
2022-08-31T13:28:56.054Z,13.32
2022-08-31T13:31:27.105Z,19.67
2022-08-31T13:33:56.930Z,11.50
2022-08-31T13:36:53.659Z,12.27
2022-08-31T13:39:47.318Z,18.02
2022-08-31T13:42:29.338Z,26.90
2022-08-31T13:45:08.172Z,25.70
2022-08-31T13:47:37.939Z,21.77
2022-08-31T13:50:21.752Z,15.82
2022-08-31T13:53:25.868Z,14.63
2022-08-31T13:55:46.446Z,12.57
2022-08-31T13:58:32.709Z,12.40
2022-08-31T14:01:28.140Z,16.48
2022-08-31T14:03:59.728Z,11.50
2022-08-31T14:06:37.942Z,14.10
2022-08-31T14:09:15.895Z,13.73
2022-08-31T14:11:53.944Z,8.45
2022-08-31T14:14:26.723Z,9.32
2022-08-31T14:16:58.123Z,13.52
2022-08-31T14:19:33.001Z,19.17
2022-08-31T14:22:33.056Z,15.95
2022-08-31T14:25:00.932Z,16.33
2022-08-31T14:27:28.964Z,14.65
2022-08-31T14:29:57.661Z,17.63
2022-08-31T14:32:25.806Z,16.40
2022-08-31T14:34:53.378Z,11.98
2022-08-31T14:37:22.287Z,22.67
2022-08-31T14:39:51.531Z,13.38
2022-08-31T14:42:37.102Z,17.75
2022-08-31T14:45:09.247Z,16.85
2022-08-31T14:47:43.826Z,10.82
2022-08-31T14:50:13.509Z,21.33
2022-08-31T14:52:46.191Z,13.25
2022-08-31T14:55:14.263Z,12.43
2022-08-31T14:57:46.805Z,18.15
2022-08-31T15:00:23.313Z,14.10
2022-08-31T15:02:53.491Z,14.85
2022-08-31T15:05:23.959Z,20.02
2022-08-31T15:07:54.935Z,16.40
2022-08-31T15:10:25.445Z,20.33
2022-08-31T15:12:53.574Z,20.08
2022-08-31T15:15:20.837Z,15.63
2022-08-31T15:17:51.309Z,20.52
2022-08-31T15:20:20.983Z,11.63
2022-08-31T15:22:48.646Z,11.07
2022-08-31T15:25:16.177Z,12.38
2022-08-31T15:27:44.448Z,16.15
2022-08-31T15:30:14.668Z,12.43
2022-08-31T15:32:45.070Z,11.75
2022-08-31T15:35:18.376Z,18.75
2022-08-31T15:37:56.725Z,14.93
2022-08-31T15:40:25.173Z,17.95
2022-08-31T15:42:56.209Z,16.73
2022-08-31T15:45:25.824Z,17.83
2022-08-31T15:48:11.446Z,11.80
2022-08-31T15:50:47.291Z,13.40
2022-08-31T15:53:16.625Z,16.95
2022-08-31T15:55:44.848Z,14.60
2022-08-31T15:58:12.686Z,19.13
2022-08-31T16:00:42.186Z,15.38
2022-08-31T16:03:09.611Z,15.77
2022-08-31T16:05:39.200Z,17.77
2022-08-31T16:08:10.399Z,14.73
2022-08-31T16:10:41.389Z,11.95
2022-08-31T16:13:09.369Z,11.02
2022-08-31T16:15:37.785Z,26.92
2022-08-31T16:18:06.205Z,15.30
2022-08-31T16:20:34.451Z,14.93
2022-08-31T16:23:01.451Z,10.15
2022-08-31T16:25:30.451Z,17.70
2022-08-31T16:28:15.383Z,15.40
2022-08-31T16:30:43.822Z,17.40
2022-08-31T16:33:12.102Z,13.98
2022-08-31T16:35:39.756Z,17.40
2022-08-31T16:38:07.054Z,21.45
2022-08-31T16:40:35.355Z,17.58
2022-08-31T16:43:02.914Z,19.70
2022-08-31T16:45:30.091Z,16.42
2022-08-31T16:48:17.122Z,12.05
2022-08-31T16:50:48.862Z,16.08
2022-08-31T16:53:18.216Z,15.15
2022-08-31T16:55:47.492Z,11.20
2022-08-31T16:58:29.566Z,17.20
2022-08-31T17:01:03.842Z,12.25
2022-08-31T17:03:30.764Z,14.90
2022-08-31T17:05:57.694Z,17.10
2022-08-31T17:08:24.609Z,17.55
2022-08-31T17:10:51.531Z,16.52
2022-08-31T17:13:18.393Z,10.77
2022-08-31T17:15:45.376Z,16.80
2022-08-31T17:18:12.255Z,17.10
2022-08-31T17:20:40.863Z,25.25
2022-08-31T17:23:08.667Z,10.40
2022-08-31T17:25:36.950Z,21.35
2022-08-31T17:28:07.746Z,14.75
2022-08-31T17:30:35.346Z,11.68
2022-08-31T17:33:02.195Z,13.35
2022-08-31T17:35:31.999Z,17.05
2022-08-31T17:37:59.710Z,18.17
2022-08-31T17:40:26.649Z,15.55
2022-08-31T17:42:57.947Z,19.92
2022-08-31T17:45:27.756Z,14.60
2022-08-31T17:47:54.924Z,11.88
2022-08-31T17:50:21.871Z,16.52
2022-08-31T17:52:48.826Z,17.40
2022-08-31T17:55:15.963Z,14.40
2022-08-31T17:57:44.377Z,15.93
2022-08-31T18:00:14.603Z,16.10
2022-08-31T18:02:41.948Z,13.32
2022-08-31T18:05:12.089Z,14.60
2022-08-31T18:07:40.956Z,24.10
2022-08-31T18:10:09.414Z,11.75
2022-08-31T18:12:41.186Z,12.40
2022-08-31T18:15:10.997Z,18.60
2022-08-31T18:17:38.152Z,17.77
2022-08-31T18:20:05.621Z,19.27
2022-08-31T18:22:32.546Z,18.75
2022-08-31T18:24:59.531Z,14.00
2022-08-31T18:27:27.324Z,17.88
2022-08-31T18:29:56.217Z,21.30
2022-08-31T18:32:23.213Z,12.63
2022-08-31T18:34:52.058Z,10.80
2022-08-31T18:37:22.230Z,13.20
2022-08-31T18:40:12.251Z,13.77
2022-08-31T18:42:57.788Z,13.90
2022-08-31T18:45:26.958Z,12.88
2022-08-31T18:50:45.683Z,18.23
2022-08-31T18:53:27.820Z,17.13
2022-08-31T18:55:58.283Z,13.07
2022-08-31T18:58:25.134Z,13.30
2022-08-31T19:00:58.946Z,8.23
2022-08-31T19:03:27.803Z,12.55
2022-08-31T19:05:56.526Z,9.05
2022-08-31T19:08:24.365Z,7.72
2022-08-31T19:10:51.333Z,8.20
2022-08-31T19:13:18.445Z,9.48
2022-08-31T19:15:45.788Z,8.57
2022-08-31T19:18:13.189Z,15.48
2022-08-31T19:20:41.020Z,7.20
2022-08-31T19:23:20.007Z,8.15
2022-08-31T19:25:48.301Z,12.65
2022-08-31T19:28:15.254Z,7.72
2022-08-31T19:30:47.656Z,3.78
2022-08-31T19:33:14.642Z,6.47
2022-08-31T19:35:41.582Z,7.80
2022-08-31T19:38:08.586Z,8.65
2022-08-31T19:40:39.860Z,8.40
2022-08-31T19:45:54.333Z,7.90
2022-08-31T19:48:24.000Z,11.43
2022-08-31T19:50:52.128Z,9.73
2022-08-31T19:53:21.451Z,9.77
2022-08-31T19:55:51.090Z,8.93
2022-08-31T19:58:26.332Z,12.48
2022-08-31T20:01:02.178Z,8.13
2022-08-31T20:03:31.221Z,5.93
2022-08-31T20:05:59.973Z,6.50
2022-08-31T20:08:27.024Z,12.35
2022-08-31T20:10:53.842Z,8.98
2022-08-31T20:13:25.285Z,10.90
2022-08-31T20:15:52.843Z,6.50
2022-08-31T20:18:20.735Z,6.57
2022-08-31T20:20:50.834Z,6.13
2022-08-31T20:23:21.129Z,6.57
2022-08-31T20:25:50.805Z,10.05
2022-08-31T20:28:26.115Z,9.70
2022-08-31T20:33:27.779Z,7.78
2022-08-31T20:35:54.707Z,3.00
2022-08-31T20:38:21.649Z,3.42
2022-08-31T20:40:52.778Z,5.35
2022-08-31T20:43:21.351Z,5.97
2022-08-31T20:45:48.858Z,7.05
2022-08-31T20:48:34.289Z,11.10
2022-08-31T20:51:16.087Z,4.78
2022-08-31T20:53:44.531Z,2.35
2022-08-31T20:56:17.241Z,3.97
2022-08-31T20:58:45.655Z,3.55
2022-08-31T21:01:14.274Z,9.15
2022-08-31T21:03:41.405Z,5.88
2022-08-31T21:06:16.300Z,5.35
2022-08-31T21:08:43.197Z,4.75
2022-08-31T21:11:18.938Z,7.57
2022-08-31T21:13:46.779Z,2.83
2022-08-31T21:16:14.953Z,5.75
2022-08-31T21:18:42.111Z,7.72
2022-08-31T21:21:43.123Z,7.45
2022-08-31T21:24:11.587Z,9.43
2022-08-31T21:26:42.302Z,3.33
2022-08-31T21:29:11.692Z,3.72
2022-08-31T21:31:52.028Z,3.35
2022-08-31T21:34:25.472Z,6.93
2022-08-31T21:36:52.421Z,4.70
2022-08-31T21:39:21.540Z,8.95
2022-08-31T21:41:49.304Z,5.25
2022-08-31T21:44:18.284Z,6.60
2022-08-31T21:46:49.863Z,5.35
2022-08-31T21:49:18.301Z,5.38
2022-08-31T21:51:48.629Z,6.28
2022-08-31T21:54:16.943Z,3.22
2022-08-31T21:56:47.748Z,7.30
2022-08-31T21:59:17.171Z,8.10
2022-08-31T22:01:45.162Z,6.10
2022-08-31T22:04:14.170Z,11.02
2022-08-31T22:06:43.163Z,4.72
2022-08-31T22:09:15.921Z,8.77
2022-08-31T22:11:46.100Z,5.30
2022-08-31T22:14:16.390Z,8.00
2022-08-31T22:16:46.612Z,4.97
2022-08-31T22:19:15.998Z,3.15
2022-08-31T22:21:46.369Z,4.50
2022-08-31T22:24:27.357Z,4.60
2022-08-31T22:26:57.186Z,3.47
2022-08-31T22:29:26.842Z,8.45
2022-08-31T22:32:00.125Z,7.03
2022-08-31T22:34:27.251Z,7.10
2022-08-31T22:36:56.885Z,7.68
2022-08-31T22:39:28.312Z,3.22
2022-08-31T22:41:56.720Z,3.83
2022-08-31T22:44:26.334Z,5.97
2022-08-31T22:46:54.077Z,4.75
2022-08-31T22:49:20.965Z,5.45
2022-08-31T22:51:48.433Z,4.35
2022-08-31T22:54:18.534Z,5.28
2022-08-31T22:56:45.728Z,6.50
2022-08-31T22:59:15.976Z,3.83
2022-08-31T23:01:50.627Z,4.18
2022-08-31T23:04:21.744Z,3.93
2022-08-31T23:06:51.186Z,3.17
2022-08-31T23:09:27.066Z,6.65
2022-08-31T23:11:55.670Z,3.42
2022-08-31T23:14:51.717Z,5.68
2022-08-31T23:17:18.756Z,3.53
2022-08-31T23:19:46.702Z,3.28
2022-08-31T23:22:15.233Z,3.17
2022-08-31T23:24:44.747Z,4.10
2022-08-31T23:27:14.457Z,2.67
2022-08-31T23:29:48.596Z,1.70
2022-08-31T23:32:18.967Z,9.63
2022-08-31T23:34:49.756Z,3.58
2022-08-31T23:37:17.917Z,3.78
2022-08-31T23:39:46.276Z,3.42
2022-08-31T23:42:16.848Z,2.35
2022-08-31T23:44:46.516Z,4.55
2022-08-31T23:47:20.445Z,4.70
2022-08-31T23:49:51.336Z,1.70
2022-08-31T23:52:21.805Z,2.28
2022-08-31T23:54:59.344Z,7.75
2022-08-31T23:57:32.841Z,3.60
